AAR6712 ZSQD-RKSI
Flight info
| Callsign | AAR6712 |
|---|---|
| Flight time | 1h 1m |
| Altitude | 33000 |
| Route | LAT81D LATUX W209 AGAVO/N0445F330 Y644 REBIT REBIT1Y |
| Aircraft | A321/M-SDE3FGHIRWY/LB1 |
Departure
| Time | 2026-04-24 14:23 |
|---|---|
| Airport | Qingdao Jiaodong International Airport (ZSQD) |
Arrival
| Time | 2026-04-24 15:24 |
|---|---|
| Airport | Incheon International Airport (RKSI) |
| Time | Latitude | Longitude | Altitude | Speed | Heading |
|---|---|---|---|---|---|
| 2026-04-24 13:52 | 36.35896 | 120.08330 | 39 ft | 0 kts | 132° |
| 2026-04-24 14:14 | 36.35905 | 120.08318 | 40 ft | 4 kts | 142° |
| 2026-04-24 14:15 | 36.35920 | 120.08306 | 39 ft | 4 kts | 165° |
| 2026-04-24 14:15 | 36.35945 | 120.08306 | 38 ft | 4 kts | 202° |
| 2026-04-24 14:15 | 36.35963 | 120.08318 | 39 ft | 0 kts | 222° |
| 2026-04-24 14:17 | 36.35912 | 120.08262 | 39 ft | 13 kts | 222° |
| 2026-04-24 14:18 | 36.35837 | 120.08173 | 41 ft | 16 kts | 226° |
| 2026-04-24 14:18 | 36.35782 | 120.08049 | 41 ft | 17 kts | 251° |
| 2026-04-24 14:18 | 36.35772 | 120.07923 | 41 ft | 14 kts | 306° |
| 2026-04-24 14:18 | 36.35867 | 120.07871 | 41 ft | 16 kts | 343° |
| 2026-04-24 14:19 | 36.35976 | 120.07829 | 41 ft | 17 kts | 342° |
| 2026-04-24 14:19 | 36.36092 | 120.07783 | 41 ft | 18 kts | 342° |
| 2026-04-24 14:19 | 36.36218 | 120.07734 | 40 ft | 20 kts | 342° |
| 2026-04-24 14:19 | 36.36350 | 120.07682 | 41 ft | 21 kts | 342° |
| 2026-04-24 14:20 | 36.36490 | 120.07628 | 40 ft | 22 kts | 342° |
| 2026-04-24 14:20 | 36.36635 | 120.07569 | 42 ft | 22 kts | 341° |
| 2026-04-24 14:20 | 36.36763 | 120.07520 | 41 ft | 18 kts | 343° |
| 2026-04-24 14:20 | 36.36862 | 120.07482 | 41 ft | 15 kts | 342° |
| 2026-04-24 14:21 | 36.36965 | 120.07441 | 41 ft | 16 kts | 342° |
| 2026-04-24 14:21 | 36.37076 | 120.07397 | 41 ft | 17 kts | 342° |
| 2026-04-24 14:21 | 36.37152 | 120.07349 | 41 ft | 12 kts | 300° |
| 2026-04-24 14:21 | 36.37134 | 120.07250 | 41 ft | 14 kts | 236° |
| 2026-04-24 14:22 | 36.37051 | 120.07191 | 40 ft | 15 kts | 175° |
| 2026-04-24 14:22 | 36.36944 | 120.07229 | 40 ft | 19 kts | 162° |
| 2026-04-24 14:22 | 36.35819 | 120.07670 | 41 ft | 149 kts | 162° |
| 2026-04-24 14:23 | 36.34721 | 120.08094 | 366 ft | 169 kts | 163° |
| 2026-04-24 14:23 | 36.33610 | 120.08522 | 1163 ft | 166 kts | 165° |
| 2026-04-24 14:23 | 36.32468 | 120.08964 | 1522 ft | 183 kts | 167° |
| 2026-04-24 14:23 | 36.31173 | 120.09467 | 1734 ft | 207 kts | 166° |
| 2026-04-24 14:24 | 36.29709 | 120.10039 | 2016 ft | 233 kts | 166° |
| 2026-04-24 14:24 | 36.28101 | 120.10672 | 2576 ft | 248 kts | 165° |
| 2026-04-24 14:24 | 36.26493 | 120.11520 | 3303 ft | 259 kts | 145° |
| 2026-04-24 14:24 | 36.25425 | 120.13332 | 4056 ft | 270 kts | 110° |
| 2026-04-24 14:25 | 36.25347 | 120.15667 | 4851 ft | 278 kts | 79° |
| 2026-04-24 14:25 | 36.25975 | 120.17943 | 5678 ft | 281 kts | 67° |
| 2026-04-24 14:25 | 36.26815 | 120.20138 | 6507 ft | 283 kts | 65° |
| 2026-04-24 14:25 | 36.27663 | 120.22345 | 7309 ft | 284 kts | 66° |
| 2026-04-24 14:26 | 36.28451 | 120.24596 | 8120 ft | 285 kts | 68° |
| 2026-04-24 14:26 | 36.29169 | 120.26894 | 8920 ft | 287 kts | 69° |
| 2026-04-24 14:26 | 36.29836 | 120.29238 | 9731 ft | 289 kts | 70° |
| 2026-04-24 14:26 | 36.30218 | 120.31686 | 10442 ft | 293 kts | 91° |
| 2026-04-24 14:27 | 36.29725 | 120.34138 | 11133 ft | 297 kts | 117° |
| 2026-04-24 14:27 | 36.28398 | 120.36166 | 11492 ft | 317 kts | 142° |
| 2026-04-24 14:27 | 36.26346 | 120.37363 | 11648 ft | 340 kts | 162° |
| 2026-04-24 14:27 | 36.24009 | 120.38263 | 11781 ft | 362 kts | 162° |
| 2026-04-24 14:28 | 36.21561 | 120.39189 | 12195 ft | 373 kts | 162° |
| 2026-04-24 14:28 | 36.19063 | 120.40135 | 12852 ft | 377 kts | 162° |
| 2026-04-24 14:28 | 36.16542 | 120.41095 | 13535 ft | 381 kts | 161° |
| 2026-04-24 14:28 | 36.14000 | 120.42072 | 14172 ft | 385 kts | 161° |
| 2026-04-24 14:29 | 36.11436 | 120.43064 | 14815 ft | 387 kts | 162° |
| 2026-04-24 14:29 | 36.08862 | 120.44067 | 15470 ft | 390 kts | 162° |
| 2026-04-24 14:29 | 36.06264 | 120.45080 | 16107 ft | 393 kts | 162° |
| 2026-04-24 14:29 | 36.03641 | 120.46099 | 16718 ft | 397 kts | 162° |
| 2026-04-24 14:30 | 36.01892 | 120.46777 | 17132 ft | 399 kts | 162° |
| 2026-04-24 14:30 | 35.98329 | 120.48156 | 17958 ft | 404 kts | 162° |
| 2026-04-24 14:30 | 35.95647 | 120.49250 | 18524 ft | 408 kts | 158° |
| 2026-04-24 14:30 | 35.93038 | 120.50660 | 19028 ft | 411 kts | 156° |
| 2026-04-24 14:31 | 35.90417 | 120.52100 | 19572 ft | 413 kts | 156° |
| 2026-04-24 14:31 | 35.87785 | 120.53550 | 20115 ft | 416 kts | 156° |
| 2026-04-24 14:31 | 35.85134 | 120.55009 | 20634 ft | 418 kts | 156° |
| 2026-04-24 14:31 | 35.82470 | 120.56471 | 21131 ft | 421 kts | 156° |
| 2026-04-24 14:32 | 35.79823 | 120.57917 | 21626 ft | 423 kts | 156° |
| 2026-04-24 14:32 | 35.77123 | 120.59389 | 22123 ft | 425 kts | 157° |
| 2026-04-24 14:32 | 35.74410 | 120.60868 | 22607 ft | 428 kts | 157° |
| 2026-04-24 14:32 | 35.71701 | 120.62412 | 23080 ft | 430 kts | 155° |
| 2026-04-24 14:33 | 35.69034 | 120.64109 | 23550 ft | 433 kts | 152° |
| 2026-04-24 14:33 | 35.66388 | 120.65918 | 23946 ft | 436 kts | 151° |
| 2026-04-24 14:33 | 35.63753 | 120.67781 | 24326 ft | 439 kts | 151° |
| 2026-04-24 14:33 | 35.61104 | 120.69662 | 24695 ft | 441 kts | 151° |
| 2026-04-24 14:34 | 35.58428 | 120.71535 | 25055 ft | 444 kts | 152° |
| 2026-04-24 14:34 | 35.55836 | 120.73611 | 25405 ft | 448 kts | 141° |
| 2026-04-24 14:34 | 35.53717 | 120.76430 | 25740 ft | 453 kts | 125° |
| 2026-04-24 14:34 | 35.52294 | 120.79889 | 26088 ft | 458 kts | 109° |
| 2026-04-24 14:35 | 35.51711 | 120.83733 | 26416 ft | 462 kts | 92° |
| 2026-04-24 14:35 | 35.52036 | 120.87658 | 26728 ft | 465 kts | 76° |
| 2026-04-24 14:35 | 35.53187 | 120.91377 | 27036 ft | 468 kts | 65° |
| 2026-04-24 14:35 | 35.54549 | 120.95017 | 27369 ft | 471 kts | 65° |
| 2026-04-24 14:36 | 35.55924 | 120.98684 | 27706 ft | 474 kts | 65° |
| 2026-04-24 14:36 | 35.57301 | 121.02366 | 28045 ft | 476 kts | 65° |
| 2026-04-24 14:36 | 35.58686 | 121.06076 | 28377 ft | 479 kts | 65° |
| 2026-04-24 14:36 | 35.60071 | 121.09798 | 28811 ft | 479 kts | 65° |
| 2026-04-24 14:37 | 35.61449 | 121.13516 | 29289 ft | 478 kts | 65° |
| 2026-04-24 14:37 | 35.62821 | 121.17231 | 29752 ft | 477 kts | 65° |
| 2026-04-24 14:37 | 35.64191 | 121.20947 | 30206 ft | 477 kts | 65° |
| 2026-04-24 14:37 | 35.65558 | 121.24662 | 30584 ft | 477 kts | 65° |
| 2026-04-24 14:38 | 35.66929 | 121.28379 | 30915 ft | 478 kts | 65° |
| 2026-04-24 14:38 | 35.68302 | 121.32102 | 31271 ft | 478 kts | 65° |
| 2026-04-24 14:38 | 35.69676 | 121.35825 | 31649 ft | 478 kts | 65° |
| 2026-04-24 14:38 | 35.71046 | 121.39547 | 32003 ft | 478 kts | 65° |
| 2026-04-24 14:39 | 35.72414 | 121.43278 | 32370 ft | 478 kts | 65° |
| 2026-04-24 14:39 | 35.73777 | 121.47010 | 32717 ft | 478 kts | 65° |
| 2026-04-24 14:39 | 35.75142 | 121.50748 | 33043 ft | 479 kts | 66° |
| 2026-04-24 14:40 | 35.77875 | 121.58235 | 33153 ft | 479 kts | 65° |
| 2026-04-24 14:40 | 35.80609 | 121.65708 | 33151 ft | 478 kts | 65° |
| 2026-04-24 14:41 | 35.83320 | 121.73169 | 33148 ft | 477 kts | 66° |
| 2026-04-24 14:41 | 35.86023 | 121.80636 | 33151 ft | 477 kts | 66° |
| 2026-04-24 14:42 | 35.88710 | 121.88068 | 33166 ft | 478 kts | 66° |
| 2026-04-24 14:42 | 35.91439 | 121.95617 | 33177 ft | 479 kts | 66° |
| 2026-04-24 14:43 | 35.94122 | 122.03065 | 33189 ft | 478 kts | 66° |
| 2026-04-24 14:43 | 35.96816 | 122.10560 | 33161 ft | 477 kts | 66° |
| 2026-04-24 14:44 | 35.99502 | 122.18062 | 33156 ft | 478 kts | 66° |
| 2026-04-24 14:44 | 36.02183 | 122.25571 | 33156 ft | 478 kts | 66° |
| 2026-04-24 14:45 | 36.04865 | 122.33087 | 33190 ft | 478 kts | 66° |
| 2026-04-24 14:45 | 36.07539 | 122.40600 | 33171 ft | 477 kts | 66° |
| 2026-04-24 14:46 | 36.10203 | 122.48113 | 33167 ft | 477 kts | 66° |
| 2026-04-24 14:46 | 36.12870 | 122.55630 | 33169 ft | 477 kts | 66° |
| 2026-04-24 14:47 | 36.15100 | 122.61934 | 33179 ft | 477 kts | 66° |
| 2026-04-24 14:47 | 36.18180 | 122.70688 | 33180 ft | 477 kts | 66° |
| 2026-04-24 14:48 | 36.20842 | 122.78275 | 33179 ft | 477 kts | 66° |
| 2026-04-24 14:48 | 36.23483 | 122.85807 | 33176 ft | 477 kts | 66° |
| 2026-04-24 14:49 | 36.26123 | 122.93341 | 33165 ft | 477 kts | 66° |
| 2026-04-24 14:49 | 36.28737 | 123.00836 | 33160 ft | 477 kts | 66° |
| 2026-04-24 14:50 | 36.31366 | 123.08404 | 33164 ft | 478 kts | 66° |
| 2026-04-24 14:50 | 36.33994 | 123.15969 | 33155 ft | 478 kts | 66° |
| 2026-04-24 14:51 | 36.36624 | 123.23544 | 33162 ft | 478 kts | 66° |
| 2026-04-24 14:51 | 36.39289 | 123.31090 | 33171 ft | 477 kts | 62° |
| 2026-04-24 14:52 | 36.43169 | 123.37701 | 33178 ft | 474 kts | 43° |
| 2026-04-24 14:52 | 36.48357 | 123.42657 | 33165 ft | 470 kts | 32° |
| 2026-04-24 14:53 | 36.53782 | 123.47201 | 33168 ft | 470 kts | 32° |
| 2026-04-24 14:53 | 36.59195 | 123.51775 | 33176 ft | 470 kts | 32° |
| 2026-04-24 14:54 | 36.64606 | 123.56355 | 33172 ft | 470 kts | 32° |
| 2026-04-24 14:54 | 36.70025 | 123.60921 | 33179 ft | 470 kts | 32° |
| 2026-04-24 14:55 | 36.74537 | 123.64686 | 33178 ft | 469 kts | 31° |
| 2026-04-24 14:55 | 36.80891 | 123.69958 | 33169 ft | 469 kts | 31° |
| 2026-04-24 14:56 | 36.86314 | 123.74479 | 33170 ft | 469 kts | 32° |
| 2026-04-24 14:56 | 36.91688 | 123.78982 | 33168 ft | 468 kts | 32° |
| 2026-04-24 14:57 | 36.97105 | 123.83512 | 33169 ft | 468 kts | 32° |
| 2026-04-24 14:57 | 37.02518 | 123.88054 | 33174 ft | 468 kts | 32° |
| 2026-04-24 14:58 | 37.07924 | 123.92614 | 33171 ft | 468 kts | 32° |
| 2026-04-24 14:58 | 37.12883 | 123.97884 | 33161 ft | 472 kts | 49° |
| 2026-04-24 14:58 | 37.14746 | 124.01270 | 33167 ft | 473 kts | 60° |
| 2026-04-24 14:59 | 37.16100 | 124.05022 | 33164 ft | 473 kts | 71° |
| 2026-04-24 14:59 | 37.16907 | 124.09013 | 33158 ft | 473 kts | 82° |
| 2026-04-24 14:59 | 37.17175 | 124.13118 | 33157 ft | 473 kts | 88° |
| 2026-04-24 15:00 | 37.17465 | 124.21356 | 33152 ft | 473 kts | 88° |
| 2026-04-24 15:00 | 37.17748 | 124.29613 | 32826 ft | 474 kts | 88° |
| 2026-04-24 15:00 | 37.17857 | 124.33742 | 32560 ft | 474 kts | 89° |
| 2026-04-24 15:01 | 37.17951 | 124.37874 | 32153 ft | 474 kts | 89° |
| 2026-04-24 15:01 | 37.18043 | 124.42000 | 31745 ft | 474 kts | 88° |
| 2026-04-24 15:01 | 37.18104 | 124.44791 | 31469 ft | 473 kts | 88° |
| 2026-04-24 15:01 | 37.18192 | 124.48864 | 31022 ft | 474 kts | 88° |
| 2026-04-24 15:02 | 37.18315 | 124.54383 | 30454 ft | 474 kts | 88° |
| 2026-04-24 15:02 | 37.18378 | 124.57120 | 30142 ft | 474 kts | 88° |
| 2026-04-24 15:02 | 37.18474 | 124.61249 | 29625 ft | 474 kts | 88° |
| 2026-04-24 15:02 | 37.18568 | 124.65382 | 29118 ft | 475 kts | 88° |
| 2026-04-24 15:03 | 37.18659 | 124.69528 | 28620 ft | 476 kts | 88° |
| 2026-04-24 15:03 | 37.18747 | 124.73673 | 28147 ft | 476 kts | 88° |
| 2026-04-24 15:03 | 37.18831 | 124.77828 | 27648 ft | 477 kts | 88° |
| 2026-04-24 15:03 | 37.18914 | 124.81991 | 27176 ft | 478 kts | 88° |
| 2026-04-24 15:04 | 37.18998 | 124.86162 | 26711 ft | 479 kts | 88° |
| 2026-04-24 15:04 | 37.19085 | 124.90334 | 26255 ft | 479 kts | 88° |
| 2026-04-24 15:04 | 37.19170 | 124.94515 | 25805 ft | 479 kts | 88° |
| 2026-04-24 15:04 | 37.19251 | 124.98673 | 25364 ft | 476 kts | 88° |
| 2026-04-24 15:05 | 37.19326 | 125.02804 | 24943 ft | 472 kts | 89° |
| 2026-04-24 15:05 | 37.19398 | 125.06919 | 24498 ft | 470 kts | 89° |
| 2026-04-24 15:05 | 37.19467 | 125.11003 | 24078 ft | 467 kts | 89° |
| 2026-04-24 15:05 | 37.19535 | 125.15071 | 23655 ft | 465 kts | 89° |
| 2026-04-24 15:06 | 37.19609 | 125.19105 | 23157 ft | 462 kts | 89° |
| 2026-04-24 15:06 | 37.19683 | 125.23117 | 22670 ft | 458 kts | 89° |
| 2026-04-24 15:06 | 37.19751 | 125.27091 | 22167 ft | 454 kts | 89° |
| 2026-04-24 15:06 | 37.19817 | 125.31039 | 21644 ft | 450 kts | 89° |
| 2026-04-24 15:07 | 37.19880 | 125.34947 | 21127 ft | 446 kts | 89° |
| 2026-04-24 15:07 | 37.19941 | 125.38824 | 20621 ft | 443 kts | 89° |
| 2026-04-24 15:07 | 37.20000 | 125.42668 | 20117 ft | 440 kts | 89° |
| 2026-04-24 15:07 | 37.19988 | 125.46487 | 19585 ft | 436 kts | 94° |
| 2026-04-24 15:08 | 37.19546 | 125.50226 | 19009 ft | 432 kts | 103° |
| 2026-04-24 15:08 | 37.18659 | 125.53799 | 18439 ft | 428 kts | 110° |
| 2026-04-24 15:08 | 37.17662 | 125.57302 | 17799 ft | 424 kts | 110° |
| 2026-04-24 15:08 | 37.16677 | 125.60760 | 17163 ft | 419 kts | 109° |
| 2026-04-24 15:09 | 37.15703 | 125.64181 | 16620 ft | 413 kts | 109° |
| 2026-04-24 15:09 | 37.14744 | 125.67553 | 16113 ft | 408 kts | 109° |
| 2026-04-24 15:09 | 37.13795 | 125.70880 | 15603 ft | 403 kts | 109° |
| 2026-04-24 15:09 | 37.12857 | 125.74163 | 15122 ft | 398 kts | 109° |
| 2026-04-24 15:10 | 37.11932 | 125.77411 | 14631 ft | 393 kts | 109° |
| 2026-04-24 15:10 | 37.11173 | 125.80666 | 14150 ft | 387 kts | 101° |
| 2026-04-24 15:10 | 37.10815 | 125.83941 | 13507 ft | 383 kts | 95° |
| 2026-04-24 15:10 | 37.10532 | 125.87246 | 12819 ft | 380 kts | 95° |
| 2026-04-24 15:11 | 37.10292 | 125.90531 | 12146 ft | 377 kts | 90° |
| 2026-04-24 15:11 | 37.10567 | 125.93749 | 11721 ft | 363 kts | 80° |
| 2026-04-24 15:11 | 37.10947 | 125.96723 | 11438 ft | 330 kts | 80° |
| 2026-04-24 15:11 | 37.11290 | 125.99445 | 11173 ft | 304 kts | 80° |
| 2026-04-24 15:12 | 37.11615 | 126.02008 | 10537 ft | 294 kts | 80° |
| 2026-04-24 15:12 | 37.12253 | 126.06987 | 9852 ft | 289 kts | 80° |
| 2026-04-24 15:12 | 37.12572 | 126.09480 | 9447 ft | 290 kts | 80° |
| 2026-04-24 15:13 | 37.12887 | 126.11966 | 9072 ft | 288 kts | 81° |
| 2026-04-24 15:13 | 37.13198 | 126.14439 | 8695 ft | 287 kts | 81° |
| 2026-04-24 15:13 | 37.13508 | 126.16901 | 8313 ft | 285 kts | 81° |
| 2026-04-24 15:13 | 37.13818 | 126.19353 | 7944 ft | 284 kts | 81° |
| 2026-04-24 15:14 | 37.14126 | 126.21800 | 7573 ft | 284 kts | 81° |
| 2026-04-24 15:14 | 37.14433 | 126.24236 | 7202 ft | 283 kts | 81° |
| 2026-04-24 15:14 | 37.14737 | 126.26653 | 6823 ft | 280 kts | 81° |
| 2026-04-24 15:14 | 37.15039 | 126.29066 | 6449 ft | 280 kts | 82° |
| 2026-04-24 15:15 | 37.15339 | 126.31471 | 6073 ft | 279 kts | 82° |
| 2026-04-24 15:15 | 37.15639 | 126.33870 | 5694 ft | 278 kts | 82° |
| 2026-04-24 15:15 | 37.15936 | 126.36259 | 5340 ft | 277 kts | 83° |
| 2026-04-24 15:15 | 37.16232 | 126.38640 | 4979 ft | 276 kts | 83° |
| 2026-04-24 15:16 | 37.16527 | 126.41007 | 4604 ft | 273 kts | 83° |
| 2026-04-24 15:16 | 37.16820 | 126.43352 | 4246 ft | 272 kts | 83° |
| 2026-04-24 15:16 | 37.17109 | 126.45687 | 3885 ft | 271 kts | 83° |
| 2026-04-24 15:16 | 37.17396 | 126.48012 | 3555 ft | 269 kts | 83° |
| 2026-04-24 15:17 | 37.17680 | 126.50311 | 3252 ft | 266 kts | 83° |
| 2026-04-24 15:17 | 37.17965 | 126.52581 | 3031 ft | 263 kts | 81° |
| 2026-04-24 15:17 | 37.18532 | 126.54758 | 2829 ft | 264 kts | 65° |
| 2026-04-24 15:17 | 37.19527 | 126.56691 | 2625 ft | 264 kts | 55° |
| 2026-04-24 15:18 | 37.20596 | 126.58560 | 2461 ft | 262 kts | 55° |
| 2026-04-24 15:18 | 37.21803 | 126.60197 | 2312 ft | 251 kts | 33° |
| 2026-04-24 15:18 | 37.23364 | 126.60903 | 2182 ft | 232 kts | 5° |
| 2026-04-24 15:18 | 37.24904 | 126.60655 | 2027 ft | 216 kts | 337° |
| 2026-04-24 15:19 | 37.26119 | 126.59750 | 1907 ft | 195 kts | 323° |
| 2026-04-24 15:19 | 37.27213 | 126.58782 | 1858 ft | 188 kts | 323° |
| 2026-04-24 15:19 | 37.28277 | 126.57841 | 1804 ft | 186 kts | 323° |
| 2026-04-24 15:19 | 37.29317 | 126.56920 | 1738 ft | 185 kts | 323° |
| 2026-04-24 15:20 | 37.30343 | 126.56013 | 1690 ft | 173 kts | 323° |
| 2026-04-24 15:20 | 37.31308 | 126.55159 | 1601 ft | 167 kts | 323° |
| 2026-04-24 15:20 | 37.32250 | 126.54326 | 1600 ft | 165 kts | 323° |
| 2026-04-24 15:20 | 37.33185 | 126.53497 | 1603 ft | 164 kts | 323° |
| 2026-04-24 15:21 | 37.34119 | 126.52670 | 1605 ft | 164 kts | 323° |
| 2026-04-24 15:21 | 37.35052 | 126.51843 | 1607 ft | 164 kts | 323° |
| 2026-04-24 15:21 | 37.35985 | 126.51017 | 1608 ft | 164 kts | 323° |
| 2026-04-24 15:21 | 37.36916 | 126.50191 | 1610 ft | 164 kts | 323° |
| 2026-04-24 15:22 | 37.37832 | 126.49379 | 1522 ft | 159 kts | 323° |
| 2026-04-24 15:22 | 37.38709 | 126.48601 | 1364 ft | 149 kts | 323° |
| 2026-04-24 15:22 | 37.39539 | 126.47865 | 1166 ft | 144 kts | 323° |
| 2026-04-24 15:23 | 37.41154 | 126.46431 | 794 ft | 141 kts | 323° |
| 2026-04-24 15:23 | 37.42745 | 126.45017 | 401 ft | 140 kts | 323° |
| 2026-04-24 15:23 | 37.43537 | 126.44315 | 215 ft | 139 kts | 323° |
| 2026-04-24 15:24 | 37.45364 | 126.42694 | 33 ft | 16 kts | 334° |
| 2026-04-24 15:25 | 37.45559 | 126.42636 | 33 ft | 19 kts | 356° |
| 2026-04-24 15:25 | 37.45865 | 126.42511 | 32 ft | 22 kts | 324° |
| 2026-04-24 15:26 | 37.46082 | 126.42405 | 32 ft | 6 kts | 37° |
| 2026-04-24 15:27 | 37.46225 | 126.42668 | 33 ft | 0 kts | 53° |
| 2026-04-24 15:29 | 37.46344 | 126.42978 | 32 ft | 14 kts | 64° |
| 2026-04-24 15:30 | 37.46151 | 126.43184 | 33 ft | 11 kts | 106° |
| 2026-04-24 15:31 | 37.46193 | 126.43275 | 33 ft | 0 kts | 54° |